sensor_id;sensor_type;location;lat;lon;timestamp;P1;durP1;ratioP1;P2;durP2;ratioP2
19554;SDS011;9924;50.828;6.440;2024-01-10T00:01:42;18.53;;;8.20;;
19554;SDS011;9924;50.828;6.440;2024-01-10T00:04:07;22.60;;;8.87;;
19554;SDS011;9924;50.828;6.440;2024-01-10T00:06:33;16.40;;;8.23;;
19554;SDS011;9924;50.828;6.440;2024-01-10T00:08:59;24.60;;;9.30;;
19554;SDS011;9924;50.828;6.440;2024-01-10T00:11:24;15.53;;;7.23;;
19554;SDS011;9924;50.828;6.440;2024-01-10T00:13:50;17.77;;;8.23;;
19554;SDS011;9924;50.828;6.440;2024-01-10T00:16:16;23.30;;;9.53;;
19554;SDS011;9924;50.828;6.440;2024-01-10T00:18:41;17.73;;;7.23;;
19554;SDS011;9924;50.828;6.440;2024-01-10T00:21:07;17.93;;;7.63;;
19554;SDS011;9924;50.828;6.440;2024-01-10T00:23:33;20.20;;;7.83;;
19554;SDS011;9924;50.828;6.440;2024-01-10T00:25:59;15.23;;;6.90;;
19554;SDS011;9924;50.828;6.440;2024-01-10T00:28:25;19.17;;;6.60;;
19554;SDS011;9924;50.828;6.440;2024-01-10T00:30:50;19.03;;;8.60;;
19554;SDS011;9924;50.828;6.440;2024-01-10T00:33:16;17.67;;;8.80;;
19554;SDS011;9924;50.828;6.440;2024-01-10T00:35:42;17.63;;;7.00;;
19554;SDS011;9924;50.828;6.440;2024-01-10T00:38:08;17.73;;;8.13;;
19554;SDS011;9924;50.828;6.440;2024-01-10T00:40:34;12.40;;;6.70;;
19554;SDS011;9924;50.828;6.440;2024-01-10T00:43:00;12.23;;;6.43;;
19554;SDS011;9924;50.828;6.440;2024-01-10T00:45:26;22.00;;;7.77;;
19554;SDS011;9924;50.828;6.440;2024-01-10T00:47:52;18.90;;;7.50;;
19554;SDS011;9924;50.828;6.440;2024-01-10T00:50:17;18.17;;;7.97;;
19554;SDS011;9924;50.828;6.440;2024-01-10T00:52:43;20.07;;;8.67;;
19554;SDS011;9924;50.828;6.440;2024-01-10T00:55:09;16.27;;;7.33;;
19554;SDS011;9924;50.828;6.440;2024-01-10T00:57:35;15.07;;;7.93;;
19554;SDS011;9924;50.828;6.440;2024-01-10T01:00:03;17.87;;;7.53;;
19554;SDS011;9924;50.828;6.440;2024-01-10T01:02:30;18.80;;;7.90;;
19554;SDS011;9924;50.828;6.440;2024-01-10T01:04:55;16.50;;;6.67;;
19554;SDS011;9924;50.828;6.440;2024-01-10T01:07:21;20.33;;;8.70;;
19554;SDS011;9924;50.828;6.440;2024-01-10T01:09:47;15.53;;;7.23;;
19554;SDS011;9924;50.828;6.440;2024-01-10T01:12:12;14.23;;;7.43;;
19554;SDS011;9924;50.828;6.440;2024-01-10T01:14:38;14.93;;;6.90;;
19554;SDS011;9924;50.828;6.440;2024-01-10T01:17:04;16.27;;;6.60;;
19554;SDS011;9924;50.828;6.440;2024-01-10T01:19:29;13.00;;;6.97;;
19554;SDS011;9924;50.828;6.440;2024-01-10T01:21:55;18.70;;;6.83;;
19554;SDS011;9924;50.828;6.440;2024-01-10T01:24:20;20.80;;;6.53;;
19554;SDS011;9924;50.828;6.440;2024-01-10T01:26:46;17.97;;;7.10;;
19554;SDS011;9924;50.828;6.440;2024-01-10T01:29:12;15.73;;;6.00;;
19554;SDS011;9924;50.828;6.440;2024-01-10T01:31:37;12.33;;;5.80;;
19554;SDS011;9924;50.828;6.440;2024-01-10T01:34:03;19.03;;;7.50;;
19554;SDS011;9924;50.828;6.440;2024-01-10T01:36:29;13.23;;;6.57;;
19554;SDS011;9924;50.828;6.440;2024-01-10T01:38:54;17.10;;;7.23;;
19554;SDS011;9924;50.828;6.440;2024-01-10T01:41:20;16.10;;;7.37;;
19554;SDS011;9924;50.828;6.440;2024-01-10T01:43:46;11.93;;;6.30;;
19554;SDS011;9924;50.828;6.440;2024-01-10T01:46:12;14.33;;;5.73;;
19554;SDS011;9924;50.828;6.440;2024-01-10T01:48:38;14.37;;;7.00;;
19554;SDS011;9924;50.828;6.440;2024-01-10T01:51:04;12.27;;;6.50;;
19554;SDS011;9924;50.828;6.440;2024-01-10T01:53:31;15.60;;;7.00;;
19554;SDS011;9924;50.828;6.440;2024-01-10T01:56:02;11.67;;;5.70;;
19554;SDS011;9924;50.828;6.440;2024-01-10T01:58:32;8.50;;;4.87;;
19554;SDS011;9924;50.828;6.440;2024-01-10T02:00:58;12.17;;;6.63;;
19554;SDS011;9924;50.828;6.440;2024-01-10T02:03:26;18.27;;;7.00;;
19554;SDS011;9924;50.828;6.440;2024-01-10T02:05:52;12.77;;;6.10;;
19554;SDS011;9924;50.828;6.440;2024-01-10T02:08:19;14.70;;;6.20;;
19554;SDS011;9924;50.828;6.440;2024-01-10T02:10:45;17.00;;;7.43;;
19554;SDS011;9924;50.828;6.440;2024-01-10T02:13:10;12.73;;;5.30;;
19554;SDS011;9924;50.828;6.440;2024-01-10T02:15:37;15.47;;;7.37;;
19554;SDS011;9924;50.828;6.440;2024-01-10T02:18:03;10.60;;;6.07;;
19554;SDS011;9924;50.828;6.440;2024-01-10T02:20:30;15.57;;;6.27;;
19554;SDS011;9924;50.828;6.440;2024-01-10T02:22:56;16.37;;;5.97;;
19554;SDS011;9924;50.828;6.440;2024-01-10T02:25:22;12.10;;;6.27;;
19554;SDS011;9924;50.828;6.440;2024-01-10T02:27:47;9.70;;;5.50;;
19554;SDS011;9924;50.828;6.440;2024-01-10T02:30:13;14.53;;;7.40;;
19554;SDS011;9924;50.828;6.440;2024-01-10T02:32:39;17.03;;;6.57;;
19554;SDS011;9924;50.828;6.440;2024-01-10T02:35:05;15.13;;;6.73;;
19554;SDS011;9924;50.828;6.440;2024-01-10T02:37:31;18.50;;;6.60;;
19554;SDS011;9924;50.828;6.440;2024-01-10T02:39:57;16.17;;;6.37;;
19554;SDS011;9924;50.828;6.440;2024-01-10T02:42:23;17.83;;;6.40;;
19554;SDS011;9924;50.828;6.440;2024-01-10T02:44:48;13.07;;;5.97;;
19554;SDS011;9924;50.828;6.440;2024-01-10T02:47:14;15.50;;;6.73;;
19554;SDS011;9924;50.828;6.440;2024-01-10T02:49:40;11.33;;;5.60;;
19554;SDS011;9924;50.828;6.440;2024-01-10T02:52:05;13.20;;;6.47;;
19554;SDS011;9924;50.828;6.440;2024-01-10T02:54:31;10.83;;;5.63;;
19554;SDS011;9924;50.828;6.440;2024-01-10T02:56:57;15.53;;;6.47;;
19554;SDS011;9924;50.828;6.440;2024-01-10T02:59:22;17.53;;;6.13;;
19554;SDS011;9924;50.828;6.440;2024-01-10T03:01:48;15.57;;;7.13;;
19554;SDS011;9924;50.828;6.440;2024-01-10T03:04:14;13.03;;;6.20;;
19554;SDS011;9924;50.828;6.440;2024-01-10T03:06:39;15.37;;;5.40;;
19554;SDS011;9924;50.828;6.440;2024-01-10T03:09:05;14.80;;;6.50;;
19554;SDS011;9924;50.828;6.440;2024-01-10T03:11:31;18.63;;;7.47;;
19554;SDS011;9924;50.828;6.440;2024-01-10T03:14:08;15.73;;;6.40;;
19554;SDS011;9924;50.828;6.440;2024-01-10T03:16:35;12.93;;;5.53;;
19554;SDS011;9924;50.828;6.440;2024-01-10T03:19:01;9.47;;;5.30;;
19554;SDS011;9924;50.828;6.440;2024-01-10T03:21:27;12.63;;;6.17;;
19554;SDS011;9924;50.828;6.440;2024-01-10T03:23:54;15.00;;;6.30;;
19554;SDS011;9924;50.828;6.440;2024-01-10T03:26:21;9.93;;;5.77;;
19554;SDS011;9924;50.828;6.440;2024-01-10T03:28:47;16.40;;;6.27;;
19554;SDS011;9924;50.828;6.440;2024-01-10T03:31:13;13.50;;;6.13;;
19554;SDS011;9924;50.828;6.440;2024-01-10T03:33:39;12.77;;;5.93;;
19554;SDS011;9924;50.828;6.440;2024-01-10T03:36:06;13.57;;;6.87;;
19554;SDS011;9924;50.828;6.440;2024-01-10T03:38:34;17.20;;;5.70;;
19554;SDS011;9924;50.828;6.440;2024-01-10T03:40:59;17.07;;;7.43;;
19554;SDS011;9924;50.828;6.440;2024-01-10T03:43:26;17.80;;;6.87;;
19554;SDS011;9924;50.828;6.440;2024-01-10T03:45:51;14.77;;;6.43;;
19554;SDS011;9924;50.828;6.440;2024-01-10T03:48:17;14.07;;;6.20;;
19554;SDS011;9924;50.828;6.440;2024-01-10T03:50:42;11.87;;;5.80;;
19554;SDS011;9924;50.828;6.440;2024-01-10T03:53:08;13.50;;;6.17;;
19554;SDS011;9924;50.828;6.440;2024-01-10T03:55:34;15.73;;;5.93;;
19554;SDS011;9924;50.828;6.440;2024-01-10T03:57:59;14.37;;;6.13;;
19554;SDS011;9924;50.828;6.440;2024-01-10T04:00:25;11.40;;;5.40;;
19554;SDS011;9924;50.828;6.440;2024-01-10T04:02:52;10.47;;;5.57;;
19554;SDS011;9924;50.828;6.440;2024-01-10T04:05:18;14.63;;;5.77;;
19554;SDS011;9924;50.828;6.440;2024-01-10T04:07:45;10.40;;;5.00;;
19554;SDS011;9924;50.828;6.440;2024-01-10T04:10:12;15.23;;;6.20;;
19554;SDS011;9924;50.828;6.440;2024-01-10T04:12:45;9.57;;;4.97;;
19554;SDS011;9924;50.828;6.440;2024-01-10T04:15:11;12.97;;;5.83;;
19554;SDS011;9924;50.828;6.440;2024-01-10T04:17:37;10.07;;;5.20;;
19554;SDS011;9924;50.828;6.440;2024-01-10T04:20:03;14.03;;;4.80;;
19554;SDS011;9924;50.828;6.440;2024-01-10T04:22:29;14.30;;;6.33;;
19554;SDS011;9924;50.828;6.440;2024-01-10T04:24:57;13.17;;;6.50;;
19554;SDS011;9924;50.828;6.440;2024-01-10T04:27:23;9.77;;;5.00;;
19554;SDS011;9924;50.828;6.440;2024-01-10T04:29:49;12.00;;;5.70;;
19554;SDS011;9924;50.828;6.440;2024-01-10T04:32:15;13.20;;;5.70;;
19554;SDS011;9924;50.828;6.440;2024-01-10T04:34:40;11.37;;;5.47;;
19554;SDS011;9924;50.828;6.440;2024-01-10T04:37:06;13.37;;;6.87;;
19554;SDS011;9924;50.828;6.440;2024-01-10T04:39:32;12.43;;;5.53;;
19554;SDS011;9924;50.828;6.440;2024-01-10T04:41:59;13.77;;;5.40;;
19554;SDS011;9924;50.828;6.440;2024-01-10T04:44:24;21.60;;;6.60;;
19554;SDS011;9924;50.828;6.440;2024-01-10T04:46:50;12.00;;;6.13;;
19554;SDS011;9924;50.828;6.440;2024-01-10T04:49:18;15.23;;;6.10;;
19554;SDS011;9924;50.828;6.440;2024-01-10T04:51:43;12.27;;;5.53;;
19554;SDS011;9924;50.828;6.440;2024-01-10T04:54:10;10.67;;;5.50;;
19554;SDS011;9924;50.828;6.440;2024-01-10T04:56:36;10.17;;;5.53;;
19554;SDS011;9924;50.828;6.440;2024-01-10T04:59:02;20.03;;;6.37;;
19554;SDS011;9924;50.828;6.440;2024-01-10T05:01:53;10.40;;;5.53;;
19554;SDS011;9924;50.828;6.440;2024-01-10T05:04:44;14.93;;;6.43;;
19554;SDS011;9924;50.828;6.440;2024-01-10T05:07:10;13.37;;;7.33;;
19554;SDS011;9924;50.828;6.440;2024-01-10T05:09:36;12.40;;;6.27;;
19554;SDS011;9924;50.828;6.440;2024-01-10T05:12:02;14.17;;;7.00;;
19554;SDS011;9924;50.828;6.440;2024-01-10T05:14:28;26.20;;;8.53;;
19554;SDS011;9924;50.828;6.440;2024-01-10T05:16:53;13.53;;;5.90;;
19554;SDS011;9924;50.828;6.440;2024-01-10T05:19:19;17.37;;;7.63;;
19554;SDS011;9924;50.828;6.440;2024-01-10T05:21:45;17.67;;;6.70;;
19554;SDS011;9924;50.828;6.440;2024-01-10T05:24:10;16.90;;;7.67;;
19554;SDS011;9924;50.828;6.440;2024-01-10T05:26:36;16.90;;;6.80;;
19554;SDS011;9924;50.828;6.440;2024-01-10T05:29:02;19.97;;;6.90;;
19554;SDS011;9924;50.828;6.440;2024-01-10T05:31:52;14.93;;;5.57;;
19554;SDS011;9924;50.828;6.440;2024-01-10T05:34:18;16.03;;;6.90;;
19554;SDS011;9924;50.828;6.440;2024-01-10T05:36:44;16.73;;;6.97;;
19554;SDS011;9924;50.828;6.440;2024-01-10T05:39:09;9.37;;;5.33;;
19554;SDS011;9924;50.828;6.440;2024-01-10T05:41:35;17.13;;;6.87;;
19554;SDS011;9924;50.828;6.440;2024-01-10T05:44:01;16.50;;;6.77;;
19554;SDS011;9924;50.828;6.440;2024-01-10T05:46:29;20.33;;;6.80;;
19554;SDS011;9924;50.828;6.440;2024-01-10T05:48:56;13.03;;;6.20;;
19554;SDS011;9924;50.828;6.440;2024-01-10T05:51:21;12.33;;;5.83;;
19554;SDS011;9924;50.828;6.440;2024-01-10T05:53:49;9.57;;;6.27;;
19554;SDS011;9924;50.828;6.440;2024-01-10T05:56:14;14.47;;;6.00;;
19554;SDS011;9924;50.828;6.440;2024-01-10T05:58:40;12.30;;;5.57;;
19554;SDS011;9924;50.828;6.440;2024-01-10T06:01:06;11.97;;;5.87;;
19554;SDS011;9924;50.828;6.440;2024-01-10T06:03:35;13.80;;;6.23;;
19554;SDS011;9924;50.828;6.440;2024-01-10T06:06:00;12.60;;;6.17;;
19554;SDS011;9924;50.828;6.440;2024-01-10T06:08:26;7.80;;;4.63;;
19554;SDS011;9924;50.828;6.440;2024-01-10T06:10:53;14.67;;;6.17;;
19554;SDS011;9924;50.828;6.440;2024-01-10T06:13:19;16.33;;;6.03;;
19554;SDS011;9924;50.828;6.440;2024-01-10T06:15:45;11.40;;;7.07;;
19554;SDS011;9924;50.828;6.440;2024-01-10T06:18:10;11.20;;;5.70;;
19554;SDS011;9924;50.828;6.440;2024-01-10T06:20:36;16.40;;;6.87;;
19554;SDS011;9924;50.828;6.440;2024-01-10T06:23:04;18.90;;;6.93;;
19554;SDS011;9924;50.828;6.440;2024-01-10T06:25:30;18.43;;;6.83;;
19554;SDS011;9924;50.828;6.440;2024-01-10T06:27:55;15.07;;;6.60;;
19554;SDS011;9924;50.828;6.440;2024-01-10T06:30:21;14.17;;;6.93;;
19554;SDS011;9924;50.828;6.440;2024-01-10T06:32:47;12.60;;;6.00;;
19554;SDS011;9924;50.828;6.440;2024-01-10T06:35:13;13.33;;;5.40;;
19554;SDS011;9924;50.828;6.440;2024-01-10T06:37:40;12.43;;;6.30;;
19554;SDS011;9924;50.828;6.440;2024-01-10T06:40:06;13.67;;;5.93;;
19554;SDS011;9924;50.828;6.440;2024-01-10T06:42:32;13.07;;;6.40;;
19554;SDS011;9924;50.828;6.440;2024-01-10T06:44:58;13.90;;;5.67;;
19554;SDS011;9924;50.828;6.440;2024-01-10T06:47:24;15.33;;;5.67;;
19554;SDS011;9924;50.828;6.440;2024-01-10T06:49:49;16.03;;;6.97;;
19554;SDS011;9924;50.828;6.440;2024-01-10T06:52:15;15.37;;;7.33;;
19554;SDS011;9924;50.828;6.440;2024-01-10T06:54:41;14.23;;;6.53;;
19554;SDS011;9924;50.828;6.440;2024-01-10T06:57:07;12.70;;;5.97;;
19554;SDS011;9924;50.828;6.440;2024-01-10T06:59:32;14.73;;;6.83;;
19554;SDS011;9924;50.828;6.440;2024-01-10T07:01:58;17.87;;;7.17;;
19554;SDS011;9924;50.828;6.440;2024-01-10T07:04:26;14.53;;;6.53;;
19554;SDS011;9924;50.828;6.440;2024-01-10T07:06:53;10.07;;;6.03;;
19554;SDS011;9924;50.828;6.440;2024-01-10T07:09:18;15.13;;;6.77;;
19554;SDS011;9924;50.828;6.440;2024-01-10T07:11:47;10.17;;;4.93;;
19554;SDS011;9924;50.828;6.440;2024-01-10T07:14:16;11.40;;;5.63;;
19554;SDS011;9924;50.828;6.440;2024-01-10T07:16:42;11.67;;;5.93;;
19554;SDS011;9924;50.828;6.440;2024-01-10T07:19:10;14.97;;;7.13;;
19554;SDS011;9924;50.828;6.440;2024-01-10T07:21:40;17.77;;;7.00;;
19554;SDS011;9924;50.828;6.440;2024-01-10T07:24:06;20.87;;;7.40;;
19554;SDS011;9924;50.828;6.440;2024-01-10T07:26:35;14.93;;;6.23;;
19554;SDS011;9924;50.828;6.440;2024-01-10T07:29:01;16.27;;;6.47;;
19554;SDS011;9924;50.828;6.440;2024-01-10T07:31:52;10.70;;;5.43;;
19554;SDS011;9924;50.828;6.440;2024-01-10T07:34:19;13.03;;;5.47;;
19554;SDS011;9924;50.828;6.440;2024-01-10T07:36:46;12.70;;;5.43;;
19554;SDS011;9924;50.828;6.440;2024-01-10T07:39:11;11.73;;;6.13;;
19554;SDS011;9924;50.828;6.440;2024-01-10T07:41:41;14.97;;;5.77;;
19554;SDS011;9924;50.828;6.440;2024-01-10T07:44:07;12.17;;;5.57;;
19554;SDS011;9924;50.828;6.440;2024-01-10T07:46:36;17.23;;;6.47;;
19554;SDS011;9924;50.828;6.440;2024-01-10T07:49:03;14.57;;;6.13;;
19554;SDS011;9924;50.828;6.440;2024-01-10T07:51:54;12.03;;;6.30;;
19554;SDS011;9924;50.828;6.440;2024-01-10T07:54:20;17.27;;;6.30;;
19554;SDS011;9924;50.828;6.440;2024-01-10T07:56:46;16.33;;;6.30;;
19554;SDS011;9924;50.828;6.440;2024-01-10T07:59:11;18.37;;;5.87;;
19554;SDS011;9924;50.828;6.440;2024-01-10T08:01:41;16.47;;;6.83;;
19554;SDS011;9924;50.828;6.440;2024-01-10T08:04:10;15.97;;;6.83;;
19554;SDS011;9924;50.828;6.440;2024-01-10T08:06:36;20.23;;;8.30;;
19554;SDS011;9924;50.828;6.440;2024-01-10T08:09:01;18.63;;;7.77;;
19554;SDS011;9924;50.828;6.440;2024-01-10T08:11:54;19.80;;;7.23;;
19554;SDS011;9924;50.828;6.440;2024-01-10T08:14:20;28.40;;;9.53;;
19554;SDS011;9924;50.828;6.440;2024-01-10T08:16:45;25.23;;;9.30;;
19554;SDS011;9924;50.828;6.440;2024-01-10T08:19:11;30.17;;;9.77;;
19554;SDS011;9924;50.828;6.440;2024-01-10T08:21:37;36.13;;;12.03;;
19554;SDS011;9924;50.828;6.440;2024-01-10T08:24:03;41.93;;;12.87;;
19554;SDS011;9924;50.828;6.440;2024-01-10T08:26:29;23.37;;;9.50;;
19554;SDS011;9924;50.828;6.440;2024-01-10T08:28:55;20.87;;;9.77;;
19554;SDS011;9924;50.828;6.440;2024-01-10T08:31:21;18.67;;;7.17;;
19554;SDS011;9924;50.828;6.440;2024-01-10T08:33:48;15.77;;;7.03;;
19554;SDS011;9924;50.828;6.440;2024-01-10T08:36:14;23.17;;;7.53;;
19554;SDS011;9924;50.828;6.440;2024-01-10T08:38:39;16.00;;;6.57;;
19554;SDS011;9924;50.828;6.440;2024-01-10T08:41:07;21.17;;;7.00;;
19554;SDS011;9924;50.828;6.440;2024-01-10T08:43:37;19.40;;;7.67;;
19554;SDS011;9924;50.828;6.440;2024-01-10T08:46:03;15.70;;;7.40;;
19554;SDS011;9924;50.828;6.440;2024-01-10T08:48:29;20.07;;;7.73;;
19554;SDS011;9924;50.828;6.440;2024-01-10T08:50:54;18.63;;;7.23;;
19554;SDS011;9924;50.828;6.440;2024-01-10T08:53:21;18.73;;;6.37;;
19554;SDS011;9924;50.828;6.440;2024-01-10T08:55:47;18.27;;;7.37;;
19554;SDS011;9924;50.828;6.440;2024-01-10T08:58:13;14.13;;;6.50;;
19554;SDS011;9924;50.828;6.440;2024-01-10T09:00:39;14.83;;;6.50;;
19554;SDS011;9924;50.828;6.440;2024-01-10T09:03:04;12.43;;;6.43;;
19554;SDS011;9924;50.828;6.440;2024-01-10T09:05:30;15.53;;;6.43;;
19554;SDS011;9924;50.828;6.440;2024-01-10T09:07:56;17.20;;;6.37;;
19554;SDS011;9924;50.828;6.440;2024-01-10T09:10:22;14.03;;;5.73;;
19554;SDS011;9924;50.828;6.440;2024-01-10T09:12:48;16.83;;;6.23;;
19554;SDS011;9924;50.828;6.440;2024-01-10T09:15:14;17.70;;;6.10;;
19554;SDS011;9924;50.828;6.440;2024-01-10T09:17:42;17.80;;;6.87;;
19554;SDS011;9924;50.828;6.440;2024-01-10T09:20:09;12.43;;;5.70;;
19554;SDS011;9924;50.828;6.440;2024-01-10T09:22:35;13.23;;;6.67;;
19554;SDS011;9924;50.828;6.440;2024-01-10T09:25:03;14.87;;;6.23;;
19554;SDS011;9924;50.828;6.440;2024-01-10T09:27:34;14.07;;;6.30;;
19554;SDS011;9924;50.828;6.440;2024-01-10T09:30:00;15.40;;;6.33;;
19554;SDS011;9924;50.828;6.440;2024-01-10T09:32:27;11.03;;;6.20;;
19554;SDS011;9924;50.828;6.440;2024-01-10T09:34:54;15.47;;;5.93;;
19554;SDS011;9924;50.828;6.440;2024-01-10T09:37:20;13.93;;;6.80;;
19554;SDS011;9924;50.828;6.440;2024-01-10T09:39:46;19.87;;;7.33;;
19554;SDS011;9924;50.828;6.440;2024-01-10T09:42:12;13.40;;;6.27;;
19554;SDS011;9924;50.828;6.440;2024-01-10T09:44:39;16.37;;;6.90;;
19554;SDS011;9924;50.828;6.440;2024-01-10T09:47:06;13.03;;;6.37;;
19554;SDS011;9924;50.828;6.440;2024-01-10T09:49:32;15.23;;;7.10;;
19554;SDS011;9924;50.828;6.440;2024-01-10T09:51:59;16.47;;;6.93;;
19554;SDS011;9924;50.828;6.440;2024-01-10T09:54:29;15.73;;;6.20;;
19554;SDS011;9924;50.828;6.440;2024-01-10T09:56:59;15.37;;;6.10;;
19554;SDS011;9924;50.828;6.440;2024-01-10T09:59:24;16.40;;;6.77;;
19554;SDS011;9924;50.828;6.440;2024-01-10T10:01:53;16.87;;;6.83;;
19554;SDS011;9924;50.828;6.440;2024-01-10T10:04:20;19.50;;;6.90;;
19554;SDS011;9924;50.828;6.440;2024-01-10T10:06:47;17.67;;;7.53;;
19554;SDS011;9924;50.828;6.440;2024-01-10T10:09:22;19.83;;;7.90;;
19554;SDS011;9924;50.828;6.440;2024-01-10T10:11:58;19.07;;;7.80;;
19554;SDS011;9924;50.828;6.440;2024-01-10T10:14:23;19.13;;;7.17;;
19554;SDS011;9924;50.828;6.440;2024-01-10T10:16:51;18.77;;;7.63;;
19554;SDS011;9924;50.828;6.440;2024-01-10T10:19:23;25.67;;;8.53;;
19554;SDS011;9924;50.828;6.440;2024-01-10T10:21:49;15.60;;;7.30;;
19554;SDS011;9924;50.828;6.440;2024-01-10T10:24:15;19.00;;;7.97;;
19554;SDS011;9924;50.828;6.440;2024-01-10T10:26:42;16.60;;;7.53;;
19554;SDS011;9924;50.828;6.440;2024-01-10T10:29:08;19.00;;;6.83;;
19554;SDS011;9924;50.828;6.440;2024-01-10T10:31:38;15.63;;;7.03;;
19554;SDS011;9924;50.828;6.440;2024-01-10T10:34:03;18.37;;;7.40;;
19554;SDS011;9924;50.828;6.440;2024-01-10T10:36:32;22.50;;;8.30;;
19554;SDS011;9924;50.828;6.440;2024-01-10T10:38:59;16.03;;;6.73;;
19554;SDS011;9924;50.828;6.440;2024-01-10T10:41:53;21.33;;;8.73;;
19554;SDS011;9924;50.828;6.440;2024-01-10T10:44:23;18.73;;;7.50;;
19554;SDS011;9924;50.828;6.440;2024-01-10T10:46:51;16.83;;;7.40;;
19554;SDS011;9924;50.828;6.440;2024-01-10T10:49:19;17.77;;;7.10;;
19554;SDS011;9924;50.828;6.440;2024-01-10T10:51:50;24.93;;;8.17;;
19554;SDS011;9924;50.828;6.440;2024-01-10T10:54:16;22.33;;;8.53;;
19554;SDS011;9924;50.828;6.440;2024-01-10T10:56:44;17.90;;;6.80;;
19554;SDS011;9924;50.828;6.440;2024-01-10T10:59:10;19.73;;;8.37;;
19554;SDS011;9924;50.828;6.440;2024-01-10T11:01:38;23.13;;;8.57;;
19554;SDS011;9924;50.828;6.440;2024-01-10T11:04:05;21.70;;;8.37;;
19554;SDS011;9924;50.828;6.440;2024-01-10T11:06:32;17.57;;;7.70;;
19554;SDS011;9924;50.828;6.440;2024-01-10T11:09:00;20.50;;;8.13;;
19554;SDS011;9924;50.828;6.440;2024-01-10T11:25:35;22.17;;;9.80;;
19554;SDS011;9924;50.828;6.440;2024-01-10T11:28:04;19.83;;;8.67;;
19554;SDS011;9924;50.828;6.440;2024-01-10T11:30:37;20.33;;;8.50;;
19554;SDS011;9924;50.828;6.440;2024-01-10T11:33:23;18.93;;;8.63;;
19554;SDS011;9924;50.828;6.440;2024-01-10T11:38:41;18.37;;;7.90;;
19554;SDS011;9924;50.828;6.440;2024-01-10T11:41:12;22.23;;;8.70;;
19554;SDS011;9924;50.828;6.440;2024-01-10T11:43:40;18.00;;;8.23;;
19554;SDS011;9924;50.828;6.440;2024-01-10T11:46:06;19.87;;;8.80;;
19554;SDS011;9924;50.828;6.440;2024-01-10T11:48:56;22.53;;;9.10;;
19554;SDS011;9924;50.828;6.440;2024-01-10T11:51:23;20.13;;;8.73;;
19554;SDS011;9924;50.828;6.440;2024-01-10T11:53:49;20.40;;;8.87;;
19554;SDS011;9924;50.828;6.440;2024-01-10T11:56:17;23.63;;;9.47;;
19554;SDS011;9924;50.828;6.440;2024-01-10T11:59:02;35.07;;;10.00;;
19554;SDS011;9924;50.828;6.440;2024-01-10T12:01:54;25.43;;;9.03;;
19554;SDS011;9924;50.828;6.440;2024-01-10T12:04:19;25.67;;;8.90;;
19554;SDS011;9924;50.828;6.440;2024-01-10T12:06:46;21.37;;;9.07;;
19554;SDS011;9924;50.828;6.440;2024-01-10T12:09:12;27.40;;;9.53;;
19554;SDS011;9924;50.828;6.440;2024-01-10T12:11:41;23.23;;;9.10;;
19554;SDS011;9924;50.828;6.440;2024-01-10T12:14:10;23.83;;;9.37;;
19554;SDS011;9924;50.828;6.440;2024-01-10T12:16:35;18.80;;;8.53;;
19554;SDS011;9924;50.828;6.440;2024-01-10T12:19:02;20.73;;;8.63;;
19554;SDS011;9924;50.828;6.440;2024-01-10T12:21:53;20.43;;;8.80;;
19554;SDS011;9924;50.828;6.440;2024-01-10T12:24:19;20.80;;;8.47;;
19554;SDS011;9924;50.828;6.440;2024-01-10T12:26:46;20.63;;;8.60;;
19554;SDS011;9924;50.828;6.440;2024-01-10T12:29:17;18.57;;;9.07;;
19554;SDS011;9924;50.828;6.440;2024-01-10T12:31:47;22.27;;;8.97;;
19554;SDS011;9924;50.828;6.440;2024-01-10T12:34:13;22.50;;;9.33;;
19554;SDS011;9924;50.828;6.440;2024-01-10T12:36:40;21.23;;;9.70;;
19554;SDS011;9924;50.828;6.440;2024-01-10T12:39:06;16.83;;;8.60;;
19554;SDS011;9924;50.828;6.440;2024-01-10T12:41:58;22.37;;;9.40;;
19554;SDS011;9924;50.828;6.440;2024-01-10T12:44:27;25.23;;;9.10;;
19554;SDS011;9924;50.828;6.440;2024-01-10T12:46:55;26.13;;;8.80;;
19554;SDS011;9924;50.828;6.440;2024-01-10T12:49:22;19.30;;;8.63;;
19554;SDS011;9924;50.828;6.440;2024-01-10T12:51:48;21.77;;;9.03;;
19554;SDS011;9924;50.828;6.440;2024-01-10T12:54:14;24.00;;;9.53;;
19554;SDS011;9924;50.828;6.440;2024-01-10T12:56:42;23.40;;;10.33;;
19554;SDS011;9924;50.828;6.440;2024-01-10T12:59:08;20.87;;;9.07;;
19554;SDS011;9924;50.828;6.440;2024-01-10T13:01:35;17.00;;;7.90;;
19554;SDS011;9924;50.828;6.440;2024-01-10T13:04:00;24.10;;;11.17;;
19554;SDS011;9924;50.828;6.440;2024-01-10T13:06:26;22.30;;;9.97;;
19554;SDS011;9924;50.828;6.440;2024-01-10T13:08:53;25.73;;;10.10;;
19554;SDS011;9924;50.828;6.440;2024-01-10T13:11:19;23.07;;;9.73;;
19554;SDS011;9924;50.828;6.440;2024-01-10T13:13:45;22.97;;;9.97;;
19554;SDS011;9924;50.828;6.440;2024-01-10T13:16:11;24.40;;;10.30;;
19554;SDS011;9924;50.828;6.440;2024-01-10T13:18:38;23.47;;;9.80;;
19554;SDS011;9924;50.828;6.440;2024-01-10T13:21:04;21.90;;;9.47;;
19554;SDS011;9924;50.828;6.440;2024-01-10T13:23:30;19.83;;;9.57;;
19554;SDS011;9924;50.828;6.440;2024-01-10T13:25:55;20.57;;;9.33;;
19554;SDS011;9924;50.828;6.440;2024-01-10T13:28:21;20.07;;;9.37;;
19554;SDS011;9924;50.828;6.440;2024-01-10T13:30:46;25.60;;;9.53;;
19554;SDS011;9924;50.828;6.440;2024-01-10T13:33:12;19.03;;;8.93;;
19554;SDS011;9924;50.828;6.440;2024-01-10T13:35:38;18.63;;;9.13;;
19554;SDS011;9924;50.828;6.440;2024-01-10T13:38:04;18.33;;;8.87;;
19554;SDS011;9924;50.828;6.440;2024-01-10T13:40:31;25.90;;;10.43;;
19554;SDS011;9924;50.828;6.440;2024-01-10T13:42:59;20.00;;;9.47;;
19554;SDS011;9924;50.828;6.440;2024-01-10T13:45:27;19.87;;;9.37;;
19554;SDS011;9924;50.828;6.440;2024-01-10T13:47:54;22.60;;;9.90;;
19554;SDS011;9924;50.828;6.440;2024-01-10T13:50:19;21.47;;;9.53;;
19554;SDS011;9924;50.828;6.440;2024-01-10T13:52:45;22.93;;;10.37;;
19554;SDS011;9924;50.828;6.440;2024-01-10T13:55:11;22.93;;;9.97;;
19554;SDS011;9924;50.828;6.440;2024-01-10T13:57:37;25.57;;;10.20;;
19554;SDS011;9924;50.828;6.440;2024-01-10T14:00:03;20.90;;;9.27;;
19554;SDS011;9924;50.828;6.440;2024-01-10T14:02:29;23.93;;;10.27;;
19554;SDS011;9924;50.828;6.440;2024-01-10T14:04:54;20.43;;;9.60;;
19554;SDS011;9924;50.828;6.440;2024-01-10T14:07:22;21.97;;;10.50;;
19554;SDS011;9924;50.828;6.440;2024-01-10T14:09:49;22.70;;;10.33;;
19554;SDS011;9924;50.828;6.440;2024-01-10T14:12:15;25.90;;;10.67;;
19554;SDS011;9924;50.828;6.440;2024-01-10T14:14:40;19.27;;;9.50;;
19554;SDS011;9924;50.828;6.440;2024-01-10T14:17:06;20.20;;;9.67;;
19554;SDS011;9924;50.828;6.440;2024-01-10T14:19:32;20.80;;;10.40;;
19554;SDS011;9924;50.828;6.440;2024-01-10T14:21:58;23.40;;;10.40;;
19554;SDS011;9924;50.828;6.440;2024-01-10T14:24:23;25.80;;;10.60;;
19554;SDS011;9924;50.828;6.440;2024-01-10T14:26:50;21.40;;;10.77;;
19554;SDS011;9924;50.828;6.440;2024-01-10T14:29:15;20.97;;;10.10;;
19554;SDS011;9924;50.828;6.440;2024-01-10T14:31:41;22.53;;;10.37;;
19554;SDS011;9924;50.828;6.440;2024-01-10T14:34:07;27.33;;;10.47;;
19554;SDS011;9924;50.828;6.440;2024-01-10T14:36:33;32.33;;;12.93;;
19554;SDS011;9924;50.828;6.440;2024-01-10T14:38:59;25.50;;;10.03;;
19554;SDS011;9924;50.828;6.440;2024-01-10T14:41:24;25.43;;;10.50;;
19554;SDS011;9924;50.828;6.440;2024-01-10T14:43:51;21.03;;;9.73;;
19554;SDS011;9924;50.828;6.440;2024-01-10T14:46:16;22.43;;;9.07;;
19554;SDS011;9924;50.828;6.440;2024-01-10T14:48:42;23.53;;;10.43;;
19554;SDS011;9924;50.828;6.440;2024-01-10T14:51:08;21.60;;;10.37;;
19554;SDS011;9924;50.828;6.440;2024-01-10T14:53:33;20.80;;;9.60;;
19554;SDS011;9924;50.828;6.440;2024-01-10T14:56:01;22.23;;;9.87;;
19554;SDS011;9924;50.828;6.440;2024-01-10T14:58:26;22.33;;;9.80;;
19554;SDS011;9924;50.828;6.440;2024-01-10T15:00:52;25.13;;;9.60;;
19554;SDS011;9924;50.828;6.440;2024-01-10T15:03:18;26.43;;;11.00;;
19554;SDS011;9924;50.828;6.440;2024-01-10T15:05:44;23.03;;;10.07;;